Time;durP1;ratioP1;P1;durP2;ratioP2;P2;SDS_P1;SDS_P2;PMS_P1;PMS_P2;Temp;Humidity;BMP_temperature;BMP_pressure;BME280_temperature;BME280_humidity;BME280_pressure;Samples;Min_cycle;Max_cycle;Signal;HPM_P1;HPM_P2
2022/01/01 00:01:57;;;;;;;21.98;7.22;;;;;;;11.20;100.00;100470.31;4951699;28;20640;-84
2022/01/01 00:04:24;;;;;;;16.13;5.25;;;;;;;11.20;100.00;100475.53;4956492;28;20078;-84
2022/01/01 00:06:52;;;;;;;22.23;6.95;;;;;;;11.23;100.00;100489.47;4966488;28;20054;-83
2022/01/01 00:09:18;;;;;;;26.95;7.30;;;;;;;11.43;100.00;100486.78;4953990;28;20781;-83
2022/01/01 00:11:45;;;;;;;20.27;9.05;;;;;;;11.58;100.00;100487.88;4954993;28;20049;-84
2022/01/01 00:14:12;;;;;;;17.90;7.47;;;;;;;11.70;100.00;100470.72;4955966;28;20050;-84
2022/01/01 00:16:43;;;;;;;28.13;11.25;;;;;;;11.51;100.00;100468.06;4973035;28;20551;-84
2022/01/01 00:19:10;;;;;;;15.35;8.57;;;;;;;11.77;100.00;100475.63;4961828;28;20130;-84
2022/01/01 00:21:37;;;;;;;24.10;13.20;;;;;;;11.84;100.00;100483.19;4956028;28;20119;-84
2022/01/01 00:24:04;;;;;;;27.65;13.43;;;;;;;11.70;100.00;100475.94;4955348;28;20134;-84
2022/01/01 00:26:30;;;;;;;25.55;13.02;;;;;;;11.88;100.00;100477.72;4954458;28;20073;-84
2022/01/01 00:28:57;;;;;;;35.58;20.20;;;;;;;11.84;100.00;100460.41;4969998;28;20051;-84
2022/01/01 00:31:25;;;;;;;35.63;18.88;;;;;;;11.78;100.00;100451.06;4955439;28;20064;-85
2022/01/01 00:33:51;;;;;;;31.35;16.88;;;;;;;11.65;100.00;100436.84;4972281;28;20061;-86
2022/01/01 00:36:18;;;;;;;29.20;16.27;;;;;;;11.63;100.00;100448.31;4971191;28;20057;-86
2022/01/01 00:38:46;;;;;;;27.77;14.07;;;;;;;11.75;100.00;100458.22;4971284;28;20051;-86
2022/01/01 00:41:12;;;;;;;25.45;12.73;;;;;;;11.73;100.00;100450.44;4954181;28;20050;-85
2022/01/01 00:43:39;;;;;;;23.08;11.38;;;;;;;11.71;100.00;100438.31;4970767;28;20063;-85
2022/01/01 00:46:06;;;;;;;25.05;11.48;;;;;;;11.39;100.00;100440.66;4961368;28;20424;-85
2022/01/01 00:48:33;;;;;;;32.60;14.50;;;;;;;11.26;100.00;100435.13;4956377;28;20061;-84
2022/01/01 00:51:23;;;;;;;22.27;10.48;;;;;;;11.23;100.00;100443.13;4957975;28;20054;-85
2022/01/01 00:53:50;;;;;;;19.23;9.35;;;;;;;11.16;100.00;100436.47;4954749;28;20062;-85
2022/01/01 00:56:17;;;;;;;25.50;7.38;;;;;;;10.83;100.00;100429.16;4972583;28;20054;-85
2022/01/01 00:58:43;;;;;;;17.92;6.53;;;;;;;10.85;100.00;100424.72;4954539;28;20047;-85
2022/01/01 01:01:10;;;;;;;15.23;5.03;;;;;;;10.49;100.00;100386.13;4955580;28;20047;-85
2022/01/01 01:03:37;;;;;;;17.20;5.00;;;;;;;10.80;100.00;100438.03;4955747;28;20058;-85
2022/01/01 01:06:04;;;;;;;16.20;4.03;;;;;;;10.95;100.00;100464.47;4955666;28;20727;-85
2022/01/01 01:08:31;;;;;;;14.75;4.00;;;;;;;10.87;100.00;100441.22;4954881;28;20051;-85
2022/01/01 01:10:59;;;;;;;16.52;5.20;;;;;;;10.95;100.00;100448.75;4955783;28;20061;-85
2022/01/01 01:13:29;;;;;;;19.85;5.80;;;;;;;10.98;100.00;100438.97;4956392;28;20054;-85
2022/01/01 01:15:56;;;;;;;19.63;6.35;;;;;;;11.12;100.00;100412.16;4972381;28;20050;-85
2022/01/01 01:18:22;;;;;;;20.38;5.00;;;;;;;11.10;100.00;100402.66;4971891;28;20046;-85
2022/01/01 01:20:49;;;;;;;19.50;6.97;;;;;;;10.91;100.00;100408.75;4955697;28;20050;-85
2022/01/01 01:23:16;;;;;;;18.00;5.93;;;;;;;11.21;100.00;100414.38;4972890;28;20051;-85
2022/01/01 01:25:43;;;;;;;11.57;4.30;;;;;;;11.40;100.00;100422.25;4955568;28;20063;-85
2022/01/01 01:28:13;;;;;;;18.88;5.88;;;;;;;11.46;100.00;100421.09;4954396;28;20066;-84
2022/01/01 01:30:40;;;;;;;16.95;5.68;;;;;;;11.58;100.00;100436.28;4954259;28;20051;-84
2022/01/01 01:33:09;;;;;;;17.33;5.20;;;;;;;11.56;100.00;100448.63;4955431;28;20097;-85
2022/01/01 01:35:36;;;;;;;10.23;3.85;;;;;;;11.66;100.00;100429.81;4955854;28;20054;-85
2022/01/01 01:38:03;;;;;;;12.95;4.32;;;;;;;11.62;100.00;100429.13;4954355;28;20050;-85
2022/01/01 01:40:30;;;;;;;10.43;3.97;;;;;;;11.69;100.00;100438.41;4972313;28;20467;-84
2022/01/01 01:42:57;;;;;;;13.13;3.88;;;;;;;11.70;100.00;100428.75;4955573;28;20405;-85
2022/01/01 01:45:28;;;;;;;17.30;5.47;;;;;;;11.53;100.00;100427.78;4954462;28;20413;-84
2022/01/01 01:47:55;;;;;;;16.80;4.72;;;;;;;11.63;100.00;100420.31;4971483;28;20046;-85
2022/01/01 01:50:22;;;;;;;19.83;4.38;;;;;;;11.69;100.00;100406.91;4955410;28;20057;-85
2022/01/01 01:52:55;;;;;;;13.65;4.80;;;;;;;11.66;100.00;100391.31;4956374;28;20043;-85
2022/01/01 01:55:22;;;;;;;;;;;;;;;11.85;100.00;100407.03;4959627;28;20097;-85
2022/01/01 01:57:49;;;;;;;16.35;5.28;;;;;;;11.64;100.00;100405.44;4958506;28;19922;-85
2022/01/01 02:02:54;;;;;;;16.63;4.68;;;;;;;11.46;100.00;100378.31;4975946;28;20560;-85
2022/01/01 02:05:21;;;;;;;14.93;4.13;;;;;;;11.39;100.00;100390.88;4959064;28;20409;-85
2022/01/01 02:07:49;;;;;;;14.07;4.72;;;;;;;11.27;100.00;100380.94;4975518;28;20541;-85
2022/01/01 02:10:17;;;;;;;13.15;3.85;;;;;;;11.25;100.00;100382.78;4958784;28;20058;-85
2022/01/01 02:12:49;;;;;;;11.68;3.95;;;;;;;11.16;100.00;100340.34;4958480;28;20054;-85
2022/01/01 02:18:15;;;;;;;15.60;4.63;;;;;;;11.32;100.00;100365.84;4975077;28;20046;-85
2022/01/01 02:20:49;;;;;;;18.65;5.22;;;;;;;11.50;100.00;100387.75;4958385;28;20055;-85
2022/01/01 02:23:22;;;;;;;16.48;4.88;;;;;;;11.48;100.00;100368.63;4958600;28;20465;-85
2022/01/01 02:25:51;;;;;;;15.48;4.25;;;;;;;11.88;100.00;100414.78;4975683;28;20057;-85
2022/01/01 02:28:18;;;;;;;14.88;4.28;;;;;;;11.66;100.00;100404.44;4951255;29;20051;-86
2022/01/01 02:30:45;;;;;;;15.80;3.97;;;;;;;11.80;100.00;100385.41;4957427;28;20053;-85
2022/01/01 02:33:12;;;;;;;11.88;3.47;;;;;;;11.77;100.00;100367.19;4957900;28;20051;-85
2022/01/01 02:35:39;;;;;;;10.30;3.33;;;;;;;11.88;100.00;100378.03;4957816;28;20050;-85
2022/01/01 02:38:07;;;;;;;12.35;2.88;;;;;;;11.88;100.00;100378.03;4969178;28;20055;-85
2022/01/01 02:40:34;;;;;;;17.35;4.18;;;;;;;11.89;100.00;100365.75;4957744;28;20053;-85
2022/01/01 02:43:01;;;;;;;13.18;4.15;;;;;;;11.70;100.00;100352.69;4957784;28;20061;-84
2022/01/01 02:45:29;;;;;;;13.02;4.97;;;;;;;11.58;100.00;100334.00;4958287;28;20529;-85
2022/01/01 02:47:56;;;;;;;14.38;4.20;;;;;;;11.71;100.00;100309.81;4954267;28;20110;-85
2022/01/01 02:50:23;;;;;;;12.50;4.22;;;;;;;11.72;100.00;100315.00;4938971;29;20047;-84
2022/01/01 02:52:50;;;;;;;16.33;4.07;;;;;;;11.70;100.00;100314.19;4956982;28;20047;-85
2022/01/01 02:55:17;;;;;;;11.93;3.45;;;;;;;11.81;100.00;100315.44;4957896;28;20059;-85
2022/01/01 02:57:44;;;;;;;14.73;3.58;;;;;;;11.89;100.00;100313.31;4956976;28;20051;-84
2022/01/01 03:00:11;;;;;;;15.88;4.15;;;;;;;11.74;100.00;100289.53;4973316;28;20059;-84
2022/01/01 03:02:38;;;;;;;13.95;3.30;;;;;;;11.88;100.00;100301.97;4957884;28;20053;-84
2022/01/01 03:05:07;;;;;;;9.73;2.75;;;;;;;11.94;100.00;100300.84;4957635;28;20062;-84
2022/01/01 03:07:35;;;;;;;13.00;3.30;;;;;;;11.70;100.00;100300.25;4974822;28;20054;-85
2022/01/01 03:10:03;;;;;;;22.13;4.68;;;;;;;11.57;100.00;100300.84;4957427;28;20109;-85
2022/01/01 03:12:30;;;;;;;19.52;3.95;;;;;;;11.55;100.00;100286.13;4957648;28;20089;-85
2022/01/01 03:14:57;;;;;;;17.42;3.78;;;;;;;11.64;100.00;100277.78;4975032;28;20057;-85
2022/01/01 03:17:24;;;;;;;15.27;3.67;;;;;;;11.24;100.00;100239.56;4974934;28;20409;-85
2022/01/01 03:19:50;;;;;;;14.00;3.72;;;;;;;11.44;100.00;100213.25;4956641;28;20054;-85
2022/01/01 03:22:17;;;;;;;12.82;3.40;;;;;;;11.28;100.00;100191.31;4957589;28;20054;-85
2022/01/01 03:24:44;;;;;;;13.80;2.92;;;;;;;11.45;100.00;100271.75;4974198;28;20058;-85
2022/01/01 03:27:10;;;;;;;12.48;3.65;;;;;;;11.51;100.00;100276.69;4957163;28;20065;-85
2022/01/01 03:29:38;;;;;;;15.10;3.10;;;;;;;11.41;100.00;100278.91;4956024;28;20436;-85
2022/01/01 03:32:05;;;;;;;16.08;3.72;;;;;;;11.37;100.00;100307.06;4957852;28;20074;-85
2022/01/01 03:34:32;;;;;;;16.23;3.67;;;;;;;11.53;100.00;100316.81;4957161;28;20050;-85
2022/01/01 03:36:59;;;;;;;15.38;3.47;;;;;;;11.54;100.00;100331.59;4974503;28;20055;-85
2022/01/01 03:39:27;;;;;;;13.55;3.58;;;;;;;11.48;100.00;100317.03;4972091;28;20386;-85
2022/01/01 03:41:54;;;;;;;19.45;3.83;;;;;;;11.44;100.00;100311.97;4974436;28;20054;-85
2022/01/01 03:44:21;;;;;;;17.70;4.38;;;;;;;11.21;100.00;100322.66;4957201;28;20060;-85
2022/01/01 03:46:48;;;;;;;21.58;3.50;;;;;;;11.36;100.00;100318.44;4956975;28;20050;-85
2022/01/01 03:49:15;;;;;;;15.23;3.65;;;;;;;11.16;100.00;100300.22;4945087;29;20508;-85
2022/01/01 03:51:42;;;;;;;11.45;2.83;;;;;;;11.32;100.00;100308.19;4938029;29;20051;-85
2022/01/01 03:54:09;;;;;;;23.48;5.07;;;;;;;11.23;100.00;100311.25;4966323;28;20047;-85
2022/01/01 03:56:38;;;;;;;20.30;3.88;;;;;;;11.09;100.00;100286.53;4956946;28;20412;-84
2022/01/01 03:59:05;;;;;;;18.58;3.55;;;;;;;11.02;100.00;100279.88;4973239;28;20405;-83
2022/01/01 04:01:32;;;;;;;22.48;4.45;;;;;;;10.99;100.00;100275.63;4956822;28;20675;-84
2022/01/01 04:03:59;;;;;;;20.08;4.53;;;;;;;10.91;100.00;100264.69;4953227;29;20055;-84
2022/01/01 04:06:26;;;;;;;19.95;4.22;;;;;;;10.83;100.00;100219.66;4938190;29;20043;-85
2022/01/01 04:08:53;;;;;;;31.92;5.55;;;;;;;10.68;100.00;100215.13;4937620;29;20061;-85
2022/01/01 04:11:21;;;;;;;21.88;4.43;;;;;;;11.13;100.00;100225.19;4937832;29;20062;-85
2022/01/01 04:13:49;;;;;;;19.52;4.32;;;;;;;11.25;100.00;100222.94;4937832;29;20477;-84
2022/01/01 04:16:17;;;;;;;22.42;3.40;;;;;;;11.26;100.00;100222.00;4954462;28;20074;-84
2022/01/01 04:18:45;;;;;;;19.80;3.72;;;;;;;11.25;100.00;100200.19;4946472;28;20061;-84
2022/01/01 04:21:13;;;;;;;19.90;4.05;;;;;;;11.13;100.00;100216.50;4956978;28;20055;-84
2022/01/01 04:23:42;;;;;;;20.20;4.05;;;;;;;11.24;100.00;100221.22;4956555;28;20047;-84
2022/01/01 04:26:10;;;;;;;12.25;4.07;;;;;;;11.15;100.00;100204.16;4956458;28;20409;-84
2022/01/01 04:28:37;;;;;;;18.77;4.50;;;;;;;11.13;100.00;100204.25;4955923;28;20050;-84
2022/01/01 04:31:04;;;;;;;23.90;4.10;;;;;;;10.98;100.00;100195.34;4952421;28;20065;-84
2022/01/01 04:33:31;;;;;;;14.45;3.70;;;;;;;10.95;100.00;100178.94;4955868;28;20050;-84
2022/01/01 04:35:58;;;;;;;18.92;4.10;;;;;;;10.86;100.00;100177.59;4956087;28;20477;-84
2022/01/01 04:38:39;;;;;;;25.35;5.20;;;;;;;10.83;100.00;100167.28;4960461;28;20057;-85
2022/01/01 04:41:09;;;;;;;25.00;6.32;;;;;;;10.73;100.00;100145.94;4936955;29;20085;-85
2022/01/01 04:43:36;;;;;;;29.25;4.88;;;;;;;10.74;100.00;100145.00;4936908;29;20070;-84
2022/01/01 04:46:03;;;;;;;22.67;4.72;;;;;;;10.61;100.00;100122.94;4943990;28;20051;-84
2022/01/01 04:48:30;;;;;;;20.40;5.38;;;;;;;10.60;100.00;100114.22;4955585;28;20082;-84
2022/01/01 04:50:56;;;;;;;21.38;4.78;;;;;;;10.55;100.00;100112.75;4956401;28;20054;-85
2022/01/01 04:53:23;;;;;;;22.75;6.00;;;;;;;10.72;100.00;100119.81;4956479;28;20484;-85
2022/01/01 04:55:50;;;;;;;19.23;5.03;;;;;;;10.76;100.00;100158.00;4955456;28;20046;-85
2022/01/01 04:58:17;;;;;;;24.75;5.05;;;;;;;10.85;100.00;100164.59;4954426;28;20078;-84
2022/01/01 05:00:44;;;;;;;16.75;4.43;;;;;;;10.95;100.00;100150.97;4955917;28;20051;-84
2022/01/01 05:03:10;;;;;;;21.23;5.68;;;;;;;10.99;100.00;100134.16;4972717;28;20039;-84
2022/01/01 05:05:39;;;;;;;20.92;5.25;;;;;;;11.00;100.00;100119.31;4956769;28;20401;-84
2022/01/01 05:08:05;;;;;;;25.65;5.22;;;;;;;10.88;100.00;100104.22;4953521;28;20043;-85
2022/01/01 05:10:32;;;;;;;31.45;6.97;;;;;;;10.80;100.00;100102.81;4972989;28;20396;-84
2022/01/01 05:12:59;;;;;;;26.90;5.57;;;;;;;11.04;100.00;100080.72;4973534;28;20047;-84
2022/01/01 05:15:26;;;;;;;27.23;6.03;;;;;;;10.98;100.00;100077.47;4956083;28;20057;-84
2022/01/01 05:17:53;;;;;;;38.67;6.95;;;;;;;11.01;100.00;100111.41;4954589;28;20051;-84
2022/01/01 05:20:19;;;;;;;26.85;4.97;;;;;;;11.08;100.00;100118.94;4936613;29;20051;-84
2022/01/01 05:22:46;;;;;;;15.63;4.53;;;;;;;11.25;100.00;100107.63;4937049;28;20051;-84
2022/01/01 05:25:13;;;;;;;31.08;6.10;;;;;;;11.21;100.00;100099.91;4955907;28;20046;-84
2022/01/01 05:27:40;;;;;;;34.88;6.93;;;;;;;10.96;100.00;100096.81;4973400;28;20076;-84
2022/01/01 05:30:09;;;;;;;23.38;4.47;;;;;;;11.33;100.00;100093.22;4975577;28;20497;-85
2022/01/01 05:32:36;;;;;;;37.58;6.57;;;;;;;11.30;100.00;100064.53;4976503;28;20049;-85
2022/01/01 05:35:03;;;;;;;45.33;7.28;;;;;;;11.20;100.00;100073.78;4958963;28;20050;-84
2022/01/01 05:37:30;;;;;;;29.17;6.57;;;;;;;11.04;100.00;100059.78;4959133;28;20051;-84
2022/01/01 05:39:57;;;;;;;31.20;6.95;;;;;;;11.17;100.00;100052.97;4958746;28;20055;-85
2022/01/01 05:42:23;;;;;;;28.65;7.03;;;;;;;10.86;100.00;100040.59;4976339;28;20481;-84
2022/01/01 05:44:50;;;;;;;21.65;4.93;;;;;;;11.10;100.00;100039.34;4959610;28;20400;-84
2022/01/01 05:47:17;;;;;;;30.48;5.85;;;;;;;11.14;100.00;100038.25;4959393;28;20090;-85
2022/01/01 05:49:44;;;;;;;28.55;6.57;;;;;;;11.12;100.00;100047.97;4942464;29;20055;-85
2022/01/01 05:52:11;;;;;;;24.42;5.88;;;;;;;10.93;100.00;100019.25;4956974;29;20059;-85
2022/01/01 05:54:37;;;;;;;30.63;7.15;;;;;;;10.70;100.00;100017.78;4972291;28;20058;-85
2022/01/01 05:57:05;;;;;;;33.78;6.72;;;;;;;11.05;100.00;100014.28;4976398;28;20057;-85
2022/01/01 05:59:32;;;;;;;33.38;7.03;;;;;;;11.15;100.00;99997.19;4946629;28;20054;-85
2022/01/01 06:01:59;;;;;;;26.52;5.80;;;;;;;11.23;100.00;99981.91;4975119;28;20046;-84
2022/01/01 06:04:26;;;;;;;25.52;6.30;;;;;;;11.18;100.00;99991.78;4958866;28;20102;-84
2022/01/01 06:06:53;;;;;;;38.10;6.70;;;;;;;11.16;100.00;99984.00;4974137;28;20128;-85
2022/01/01 06:09:20;;;;;;;31.42;6.97;;;;;;;11.25;100.00;99990.53;4974919;28;20558;-85
2022/01/01 06:11:46;;;;;;;28.35;5.35;;;;;;;11.23;100.00;99987.16;4958855;28;20473;-85
2022/01/01 06:14:15;;;;;;;37.08;7.25;;;;;;;11.07;100.00;100022.94;4958751;28;20046;-85
2022/01/01 06:16:43;;;;;;;34.03;9.63;;;;;;;11.12;100.00;100023.53;4974139;28;20054;-85
2022/01/01 06:19:10;;;;;;;37.83;7.85;;;;;;;11.23;100.00;100025.63;4958230;28;20061;-85
2022/01/01 06:21:36;;;;;;;34.35;7.43;;;;;;;11.09;100.00;100005.38;4959244;28;20046;-85
2022/01/01 06:24:04;;;;;;;24.45;6.20;;;;;;;11.50;100.00;100029.41;4961544;28;20129;-85
2022/01/01 06:26:30;;;;;;;36.47;8.23;;;;;;;11.15;100.00;100018.97;4958482;28;20404;-85
2022/01/01 06:28:57;;;;;;;36.58;8.13;;;;;;;11.06;100.00;100013.38;4974457;28;20051;-85
2022/01/01 06:31:24;;;;;;;29.40;8.98;;;;;;;11.19;100.00;99996.09;4974424;28;20047;-85
2022/01/01 06:33:51;;;;;;;36.30;7.50;;;;;;;11.07;100.00;99986.28;4975489;28;20051;-84
2022/01/01 06:36:18;;;;;;;26.23;7.45;;;;;;;11.27;100.00;99980.81;4958191;28;20105;-84
2022/01/01 06:38:45;;;;;;;32.75;7.97;;;;;;;11.31;100.00;99986.75;4955062;28;20069;-85
2022/01/01 06:41:12;;;;;;;32.85;8.55;;;;;;;11.25;100.00;99976.59;4958157;28;20053;-85
2022/01/01 06:43:40;;;;;;;43.15;9.48;;;;;;;10.67;100.00;99972.56;4958672;28;20058;-84
2022/01/01 06:46:07;;;;;;;44.00;10.38;;;;;;;10.55;100.00;99974.03;4958150;28;20136;-85
2022/01/01 06:48:34;;;;;;;29.73;7.07;;;;;;;11.08;100.00;99973.06;4951353;29;20062;-85
2022/01/01 06:51:01;;;;;;;37.35;7.57;;;;;;;10.97;100.00;99964.94;4955145;29;20055;-85
2022/01/01 06:53:28;;;;;;;32.15;7.63;;;;;;;11.23;100.00;99940.00;4958129;28;20050;-85
2022/01/01 06:55:55;;;;;;;35.05;9.23;;;;;;;11.19;100.00;99926.22;4975101;28;20051;-85
2022/01/01 06:58:22;;;;;;;43.10;7.60;;;;;;;11.02;100.00;99913.97;4955477;28;20050;-85
2022/01/01 07:00:49;;;;;;;38.35;8.65;;;;;;;11.06;100.00;99898.13;4951872;28;20043;-85
2022/01/01 07:03:22;;;;;;;41.97;9.50;;;;;;;11.15;100.00;99913.34;4957379;28;20505;-85
2022/01/01 07:05:49;;;;;;;;;;;;;;;11.25;100.00;99903.22;4958639;28;20470;-85
2022/01/01 07:08:16;;;;;;;44.25;9.98;;;;;;;11.05;100.00;99893.78;4974534;28;19922;-85
2022/01/01 07:10:44;;;;;;;41.28;9.38;;;;;;;11.10;100.00;99895.25;4974336;28;20054;-85
2022/01/01 07:13:15;;;;;;;28.30;7.32;;;;;;;11.09;100.00;99861.28;4957600;28;20501;-84
2022/01/01 07:15:43;;;;;;;33.78;8.88;;;;;;;11.05;100.00;99868.47;4974954;28;20051;-85
2022/01/01 07:18:10;;;;;;;41.03;8.63;;;;;;;11.27;100.00;99872.53;4957004;28;20050;-85
2022/01/01 07:20:37;;;;;;;29.70;8.10;;;;;;;11.31;100.00;99863.56;4974907;28;20054;-85
2022/01/01 07:23:04;;;;;;;33.60;6.97;;;;;;;11.30;100.00;99867.97;4974601;28;20046;-84
2022/01/01 07:25:31;;;;;;;40.10;8.32;;;;;;;11.04;100.00;99850.22;4974680;28;20058;-84
2022/01/01 07:27:57;;;;;;;37.70;8.30;;;;;;;10.99;100.00;99834.72;4955327;28;20051;-84
2022/01/01 07:30:24;;;;;;;44.97;10.75;;;;;;;11.04;100.00;99835.31;4947556;28;20062;-85
2022/01/01 07:32:52;;;;;;;37.85;9.55;;;;;;;10.94;100.00;99828.88;4957233;28;20130;-85
2022/01/01 07:35:20;;;;;;;48.33;9.80;;;;;;;10.93;100.00;99829.81;4974795;28;20760;-84
2022/01/01 07:37:48;;;;;;;29.13;7.13;;;;;;;11.07;100.00;99811.59;4971859;28;20050;-85
2022/01/01 07:40:17;;;;;;;38.53;8.07;;;;;;;10.98;100.00;99805.06;4937787;28;20057;-85
2022/01/01 07:42:45;;;;;;;28.98;7.95;;;;;;;11.10;100.00;99802.72;4938069;29;20054;-85
2022/01/01 07:45:13;;;;;;;31.75;8.25;;;;;;;11.05;100.00;99781.16;4938026;29;20047;-84
2022/01/01 07:47:40;;;;;;;39.67;8.75;;;;;;;11.09;100.00;99804.50;4938622;28;20350;-84
2022/01/01 07:50:08;;;;;;;44.28;10.75;;;;;;;10.93;100.00;99816.72;4955672;28;20050;-84
2022/01/01 07:52:35;;;;;;;38.90;11.32;;;;;;;11.10;100.00;99824.53;4957156;28;20062;-85
2022/01/01 07:55:02;;;;;;;36.35;9.20;;;;;;;11.02;100.00;99814.44;4957089;28;20078;-84
2022/01/01 07:57:29;;;;;;;34.25;8.82;;;;;;;11.05;100.00;99791.63;4957557;28;20058;-85
2022/01/01 07:59:56;;;;;;;30.25;7.82;;;;;;;11.08;100.00;99775.75;4944191;28;20057;-85
2022/01/01 08:02:23;;;;;;;44.45;9.65;;;;;;;11.14;100.00;99781.50;4956524;28;20421;-84
2022/01/01 08:04:50;;;;;;;31.77;7.53;;;;;;;11.15;100.00;99743.03;4974231;28;20126;-85
2022/01/01 08:07:17;;;;;;;39.63;8.63;;;;;;;10.81;100.00;99747.53;4974352;28;20050;-85
2022/01/01 08:10:06;;;;;;;56.25;9.48;;;;;;;10.93;100.00;99735.53;4959586;28;20051;-84
2022/01/01 08:12:33;;;;;;;51.30;10.32;;;;;;;10.44;100.00;99692.75;4974714;28;20066;-84
2022/01/01 08:14:59;;;;;;;33.33;8.77;;;;;;;10.67;100.00;99687.22;4974776;28;20608;-84
2022/01/01 08:17:26;;;;;;;38.20;9.90;;;;;;;10.54;100.00;99679.19;4974525;28;20428;-84
2022/01/01 08:19:53;;;;;;;31.17;8.32;;;;;;;10.62;100.00;99656.91;4973903;28;20050;-85
2022/01/01 08:22:19;;;;;;;33.80;10.13;;;;;;;10.78;100.00;99698.81;4956863;28;20162;-85
2022/01/01 08:24:46;;;;;;;39.30;9.60;;;;;;;10.54;100.00;99640.78;4957100;28;20054;-84
2022/01/01 08:27:13;;;;;;;53.03;10.20;;;;;;;10.48;100.00;99662.03;4973790;28;20047;-85
2022/01/01 08:29:40;;;;;;;50.20;10.98;;;;;;;10.64;100.00;99636.72;4973474;28;20061;-84
2022/01/01 08:32:07;;;;;;;32.40;8.55;;;;;;;10.87;100.00;99624.13;4976770;28;20392;-84
2022/01/01 08:34:35;;;;;;;39.03;9.52;;;;;;;11.20;100.00;99657.16;4993942;28;20046;-84
2022/01/01 08:37:02;;;;;;;37.78;10.50;;;;;;;10.79;100.00;99611.44;4993014;28;20050;-84
2022/01/01 08:39:29;;;;;;;35.63;8.77;;;;;;;10.99;100.00;99612.09;4974984;28;20051;-84
2022/01/01 08:41:55;;;;;;;46.60;9.70;;;;;;;10.85;100.00;99598.94;4974045;28;20047;-84
2022/01/01 08:44:22;;;;;;;32.28;10.45;;;;;;;11.11;100.00;99650.69;4956960;28;20047;-84
2022/01/01 08:46:49;;;;;;;39.75;10.13;;;;;;;11.05;100.00;99619.63;4973318;28;20087;-84
2022/01/01 08:49:16;;;;;;;42.42;10.90;;;;;;;11.23;100.00;99658.78;4958279;28;20051;-84
2022/01/01 08:51:44;;;;;;;43.90;10.77;;;;;;;10.68;100.00;99626.94;4938205;29;20055;-84
2022/01/01 08:54:13;;;;;;;29.75;8.90;;;;;;;11.23;100.00;99637.81;4953739;28;20047;-84
2022/01/01 08:56:41;;;;;;;31.60;8.85;;;;;;;10.71;100.00;99566.56;4956970;28;20125;-85
2022/01/01 08:59:08;;;;;;;43.88;9.70;;;;;;;11.29;100.00;99637.47;4956275;28;20059;-84
2022/01/01 09:01:35;;;;;;;38.92;9.90;;;;;;;11.38;100.00;99629.91;4956724;28;20046;-86
2022/01/01 09:04:04;;;;;;;30.92;8.63;;;;;;;11.58;100.00;99636.59;4974167;28;20047;-84
2022/01/01 09:06:31;;;;;;;31.38;7.95;;;;;;;11.55;100.00;99605.31;4974140;28;20055;-84
2022/01/01 09:08:58;;;;;;;36.35;9.25;;;;;;;11.06;100.00;99568.06;4955112;28;20500;-84
2022/01/01 09:11:25;;;;;;;37.58;9.27;;;;;;;11.30;100.00;99626.06;4956393;28;20051;-84
2022/01/01 09:13:52;;;;;;;47.20;9.57;;;;;;;11.30;100.00;99602.47;4956309;28;20485;-85
2022/01/01 09:16:19;;;;;;;44.20;11.07;;;;;;;11.54;100.00;99585.28;4961734;28;20101;-85
2022/01/01 09:18:47;;;;;;;35.28;8.70;;;;;;;11.26;100.00;99587.84;4954788;28;20529;-85
2022/01/01 09:21:15;;;;;;;36.88;8.82;;;;;;;11.48;100.00;99613.66;4970611;28;20134;-85
2022/01/01 09:23:42;;;;;;;36.13;9.43;;;;;;;11.15;100.00;99575.38;4970777;28;20086;-84
2022/01/01 09:26:09;;;;;;;37.47;8.90;;;;;;;11.58;100.00;99585.94;4944212;28;20051;-84
2022/01/01 09:28:36;;;;;;;29.90;8.80;;;;;;;11.34;100.00;99552.41;4951893;28;20130;-84
2022/01/01 09:31:04;;;;;;;27.23;8.23;;;;;;;11.56;100.00;99540.59;4970286;28;20043;-84
2022/01/01 09:33:33;;;;;;;29.38;7.95;;;;;;;11.77;100.00;99559.44;4969167;28;20169;-85
2022/01/01 09:36:02;;;;;;;36.25;9.02;;;;;;;11.65;100.00;99562.81;4947694;28;20057;-84
2022/01/01 09:38:30;;;;;;;26.70;8.15;;;;;;;11.65;100.00;99549.69;4955306;28;20067;-84
2022/01/01 09:40:59;;;;;;;42.97;8.85;;;;;;;11.99;100.00;99579.13;4951410;29;20086;-85
2022/01/01 09:43:28;;;;;;;23.90;7.70;;;;;;;11.83;100.00;99550.34;4970590;28;20066;-84
2022/01/01 09:45:57;;;;;;;29.45;10.10;;;;;;;11.59;100.00;99537.81;4974345;28;20050;-85
2022/01/01 09:48:25;;;;;;;33.85;7.82;;;;;;;11.86;100.00;99564.09;4957324;28;20051;-85
2022/01/01 09:50:59;;;;;;;30.88;8.75;;;;;;;11.53;100.00;99515.44;4974087;28;20076;-84
2022/01/01 09:53:27;;;;;;;34.53;7.47;;;;;;;12.28;100.00;99544.03;4961233;28;20058;-89
2022/01/01 09:55:57;;;;;;;30.15;6.43;;;;;;;12.02;100.00;99508.13;4951031;28;20051;-89
2022/01/01 09:58:34;;;;;;;30.05;7.68;;;;;;;12.49;100.00;99543.63;4953366;28;20078;-87
2022/01/01 10:01:03;;;;;;;23.58;6.53;;;;;;;12.57;100.00;99522.97;4981011;28;20054;-89
2022/01/01 10:03:37;;;;;;;29.83;6.25;;;;;;;12.74;100.00;99519.22;4961213;28;20077;-88
2022/01/01 10:06:14;;;;;;;;;;;;;;;12.90;100.00;99563.69;4954442;28;20110;-89
2022/01/01 10:08:45;;;;;;;33.28;7.45;;;;;;;12.71;100.00;99536.03;4956582;28;20356;-90
2022/01/01 10:11:17;;;;;;;21.83;7.18;;;;;;;12.88;100.00;99560.34;4978829;28;20142;-89
2022/01/01 10:13:45;;;;;;;28.20;7.43;;;;;;;12.93;100.00;99524.09;4956240;28;20062;-88
2022/01/01 10:16:14;;;;;;;32.33;6.45;;;;;;;12.99;100.00;99539.44;4951149;28;20389;-89
2022/01/01 10:18:47;;;;;;;24.25;5.95;;;;;;;12.94;100.00;99514.41;4959748;28;20049;-89
2022/01/01 10:21:17;;;;;;;19.05;5.65;;;;;;;12.64;100.00;99503.25;4963496;28;20046;-87
2022/01/01 10:23:46;;;;;;;26.48;7.35;;;;;;;12.80;100.00;99505.69;4977647;28;20061;-89
2022/01/01 10:29:08;;;;;;;26.85;6.30;;;;;;;12.76;100.00;99488.44;4977535;28;20073;-89
2022/01/01 10:31:36;;;;;;;30.98;8.25;;;;;;;13.05;100.00;99518.03;4972289;28;20086;-87
2022/01/01 10:34:15;;;;;;;36.42;7.68;;;;;;;12.72;100.00;99532.44;4954351;28;20122;-86
2022/01/01 10:36:47;;;;;;;27.85;6.25;;;;;;;12.57;100.00;99495.84;4964844;28;20051;-86
2022/01/01 10:39:18;;;;;;;21.10;7.90;;;;;;;12.58;100.00;99522.00;4953753;28;20413;-85
2022/01/01 10:41:51;;;;;;;31.80;8.30;;;;;;;12.42;100.00;99523.94;4963515;28;20277;-87
2022/01/01 10:44:39;;;;;;;35.40;8.55;;;;;;;12.42;100.00;99503.78;4976413;28;20047;-87
2022/01/01 10:47:14;;;;;;;38.13;8.68;;;;;;;12.45;100.00;99487.84;4970951;28;20057;-85
2022/01/01 10:52:17;;;;;;;29.00;9.02;;;;;;;12.43;100.00;99512.50;4976527;28;20073;-86
2022/01/01 10:54:58;;;;;;;37.05;8.27;;;;;;;12.40;100.00;99499.59;4976098;28;20046;-86
2022/01/01 10:57:26;;;;;;;35.50;8.02;;;;;;;12.37;100.00;99513.75;4974852;28;20059;-83
2022/01/01 11:00:08;;;;;;;36.65;7.82;;;;;;;12.33;100.00;99510.47;4966975;28;20050;-84
2022/01/01 11:02:37;;;;;;;28.85;7.32;;;;;;;12.53;100.00;99467.16;4961036;28;20460;-84
2022/01/01 11:05:06;;;;;;;35.58;7.55;;;;;;;12.44;100.00;99488.78;4958774;28;20046;-84
2022/01/01 11:07:36;;;;;;;38.72;7.32;;;;;;;12.65;100.00;99483.91;4974205;28;20441;-84
2022/01/01 11:10:03;;;;;;;43.67;8.52;;;;;;;12.22;100.00;99467.50;4945324;28;20054;-84
2022/01/01 11:12:30;;;;;;;33.05;7.88;;;;;;;12.11;100.00;99450.66;4958795;28;20053;-84
2022/01/01 11:15:02;;;;;;;31.75;7.85;;;;;;;12.22;100.00;99460.47;4973889;28;20047;-83
2022/01/01 11:17:32;;;;;;;27.13;8.23;;;;;;;12.23;100.00;99462.13;4957928;28;20106;-84
2022/01/01 11:20:00;;;;;;;36.58;8.90;;;;;;;12.30;100.00;99463.41;4955076;28;20046;-84
2022/01/01 11:22:27;;;;;;;29.05;8.30;;;;;;;12.25;100.00;99439.28;4953727;29;20130;-84
2022/01/01 11:24:55;;;;;;;38.15;8.20;;;;;;;12.24;100.00;99453.34;4970648;28;20055;-83
2022/01/01 11:27:25;;;;;;;38.53;9.30;;;;;;;12.41;100.00;99444.38;4958251;28;20146;-84